createdAt,value
2023-03-06T00:01:04.029Z,2.96
2023-03-06T00:03:33.843Z,2.96
2023-03-06T00:06:03.057Z,2.95
2023-03-06T00:08:31.936Z,2.96
2023-03-06T00:11:01.000Z,3.04
2023-03-06T00:13:31.391Z,3.12
2023-03-06T00:16:03.738Z,3.15
2023-03-06T00:18:33.030Z,3.16
2023-03-06T00:21:01.841Z,3.14
2023-03-06T00:23:30.969Z,3.13
2023-03-06T00:25:59.796Z,3.15
2023-03-06T00:28:31.188Z,3.14
2023-03-06T00:31:00.146Z,3.16
2023-03-06T00:33:29.088Z,3.18
2023-03-06T00:35:57.849Z,3.25
2023-03-06T00:38:28.818Z,3.26
2023-03-06T00:40:58.198Z,3.21
2023-03-06T00:43:27.010Z,3.21
2023-03-06T00:45:55.897Z,3.21
2023-03-06T00:48:24.752Z,3.16
2023-03-06T00:50:54.147Z,3.17
2023-03-06T00:53:23.079Z,3.24
2023-03-06T00:55:52.616Z,3.21
2023-03-06T00:58:21.605Z,3.22
2023-03-06T01:00:50.849Z,3.15
2023-03-06T01:03:19.592Z,3.13
2023-03-06T01:05:48.613Z,3.12
2023-03-06T01:08:17.489Z,3.07
2023-03-06T01:10:46.306Z,3.04
2023-03-06T01:13:15.306Z,3.03
2023-03-06T01:15:45.349Z,2.98
2023-03-06T01:18:14.157Z,2.90
2023-03-06T01:20:43.366Z,2.83
2023-03-06T01:23:12.216Z,2.79
2023-03-06T01:25:41.034Z,2.73
2023-03-06T01:28:09.893Z,2.68
2023-03-06T01:30:38.862Z,2.63
2023-03-06T01:33:07.749Z,2.60
2023-03-06T01:35:39.659Z,2.56
2023-03-06T01:38:08.949Z,2.54
2023-03-06T01:40:39.305Z,2.53
2023-03-06T01:43:28.264Z,2.49
2023-03-06T01:46:27.107Z,2.48
2023-03-06T01:49:00.288Z,2.49
2023-03-06T01:51:59.972Z,2.50
2023-03-06T01:54:31.263Z,2.48
2023-03-06T01:57:07.398Z,2.50
2023-03-06T01:59:38.796Z,2.52
2023-03-06T02:02:11.049Z,2.52
2023-03-06T02:04:42.597Z,2.51
2023-03-06T02:07:12.182Z,2.52
2023-03-06T02:09:41.073Z,2.52
2023-03-06T02:12:16.659Z,2.51
2023-03-06T02:14:46.616Z,2.49
2023-03-06T02:17:19.102Z,2.48
2023-03-06T02:20:20.534Z,2.50
2023-03-06T02:23:41.504Z,2.50
2023-03-06T02:26:12.046Z,2.52
2023-03-06T02:28:40.911Z,2.51
2023-03-06T02:31:21.322Z,2.49
2023-03-06T02:34:19.625Z,2.48
2023-03-06T02:36:54.221Z,2.46
2023-03-06T02:39:27.086Z,2.37
2023-03-06T02:41:56.066Z,2.28
2023-03-06T02:44:27.338Z,2.21
2023-03-06T02:46:56.129Z,2.21
2023-03-06T02:49:26.524Z,2.17
2023-03-06T02:51:55.550Z,2.15
2023-03-06T02:54:24.230Z,2.16
2023-03-06T02:56:53.009Z,2.13
2023-03-06T02:59:21.747Z,2.17
2023-03-06T03:01:51.088Z,2.15
2023-03-06T03:04:20.010Z,2.12
2023-03-06T03:06:49.386Z,2.15
2023-03-06T03:09:20.026Z,2.11
2023-03-06T03:11:48.904Z,2.05
2023-03-06T03:14:18.038Z,2.02
2023-03-06T03:16:47.553Z,2.00
2023-03-06T03:19:16.327Z,1.99
2023-03-06T03:21:45.326Z,1.98
2023-03-06T03:24:14.360Z,2.00
2023-03-06T03:26:44.051Z,1.97
2023-03-06T03:29:15.897Z,1.92
2023-03-06T03:31:44.704Z,1.89
2023-03-06T03:34:13.593Z,1.88
2023-03-06T03:36:42.633Z,1.82
2023-03-06T03:39:11.691Z,1.80
2023-03-06T03:41:40.918Z,1.81
2023-03-06T03:44:10.888Z,1.80
2023-03-06T03:46:39.796Z,1.81
2023-03-06T03:49:12.465Z,1.80
2023-03-06T03:54:45.038Z,1.83
2023-03-06T03:57:13.931Z,1.75
2023-03-06T03:59:45.417Z,1.72
2023-03-06T04:02:24.017Z,1.71
2023-03-06T04:04:59.123Z,1.66
2023-03-06T04:07:28.558Z,1.63
2023-03-06T04:09:57.933Z,1.64
2023-03-06T04:12:28.105Z,1.68
2023-03-06T04:14:58.378Z,1.73
2023-03-06T04:17:27.835Z,1.77
2023-03-06T04:19:57.038Z,1.81
2023-03-06T04:22:26.625Z,1.82
2023-03-06T04:24:55.931Z,1.83
2023-03-06T04:27:25.112Z,1.79
2023-03-06T04:29:56.560Z,1.73
2023-03-06T04:32:25.632Z,1.84
2023-03-06T04:34:54.510Z,1.78
2023-03-06T04:37:27.969Z,1.75
2023-03-06T04:39:57.838Z,1.73
2023-03-06T04:42:26.640Z,1.73
2023-03-06T04:44:55.572Z,1.67
2023-03-06T04:47:24.345Z,1.58
2023-03-06T04:49:53.109Z,1.57
2023-03-06T04:52:21.949Z,1.53
2023-03-06T04:54:50.727Z,1.48
2023-03-06T04:57:19.631Z,1.48
2023-03-06T04:59:49.843Z,1.55
2023-03-06T05:02:18.923Z,1.66
2023-03-06T05:04:47.846Z,1.80
2023-03-06T05:07:16.710Z,1.89
2023-03-06T05:09:45.516Z,1.85
2023-03-06T05:12:14.352Z,1.74
2023-03-06T05:14:46.233Z,1.76
2023-03-06T05:17:15.893Z,1.74
2023-03-06T05:19:44.814Z,1.80
2023-03-06T05:22:13.623Z,1.89
2023-03-06T05:24:42.555Z,1.96
2023-03-06T05:27:11.297Z,2.01
2023-03-06T05:29:40.218Z,2.04
2023-03-06T05:32:09.357Z,2.06
2023-03-06T05:34:40.391Z,2.09
2023-03-06T05:37:09.689Z,2.13
2023-03-06T05:39:38.580Z,2.17
2023-03-06T05:42:07.790Z,2.25
2023-03-06T05:44:37.180Z,2.34
2023-03-06T05:47:06.202Z,2.41
2023-03-06T05:49:36.323Z,2.49
2023-03-06T05:52:06.836Z,2.53
2023-03-06T05:54:37.398Z,2.68
2023-03-06T05:57:06.493Z,2.74
2023-03-06T05:59:36.291Z,2.69
2023-03-06T06:02:05.845Z,2.66
2023-03-06T06:04:35.347Z,2.67
2023-03-06T06:07:06.243Z,2.68
2023-03-06T06:09:35.053Z,2.81
2023-03-06T06:12:04.439Z,2.77
2023-03-06T06:14:36.332Z,2.69
2023-03-06T06:17:05.651Z,2.63
2023-03-06T06:19:34.430Z,2.68
2023-03-06T06:22:04.083Z,2.72
2023-03-06T06:24:33.243Z,2.71
2023-03-06T06:27:03.835Z,2.69
2023-03-06T06:29:33.838Z,2.74
2023-03-06T06:32:02.912Z,2.79
2023-03-06T06:34:32.138Z,2.85
2023-03-06T06:37:00.931Z,2.84
2023-03-06T06:39:29.898Z,2.88
2023-03-06T06:42:15.439Z,2.93
2023-03-06T06:44:47.812Z,2.92
2023-03-06T06:47:25.640Z,2.95
2023-03-06T06:49:56.465Z,2.98
2023-03-06T06:52:25.488Z,3.02
2023-03-06T06:54:54.681Z,3.09
2023-03-06T06:57:23.403Z,3.17
2023-03-06T06:59:53.908Z,3.26
2023-03-06T07:02:23.576Z,3.47
2023-03-06T07:05:03.817Z,3.65
2023-03-06T07:07:36.672Z,3.73
2023-03-06T07:10:11.771Z,3.87
2023-03-06T07:12:40.745Z,3.95
2023-03-06T07:15:14.073Z,4.05
2023-03-06T07:17:42.975Z,4.01
2023-03-06T07:20:12.861Z,4.03
2023-03-06T07:22:50.931Z,4.29
2023-03-06T07:25:21.362Z,4.69
2023-03-06T07:27:55.083Z,4.84
2023-03-06T07:30:24.834Z,4.95
2023-03-06T07:32:56.544Z,4.99
2023-03-06T07:35:26.307Z,4.72
2023-03-06T07:37:55.486Z,4.50
2023-03-06T07:40:24.893Z,4.62
2023-03-06T07:43:06.109Z,4.77
2023-03-06T07:45:44.361Z,4.95
2023-03-06T07:48:15.063Z,5.26
2023-03-06T07:50:43.941Z,5.35
2023-03-06T07:53:12.675Z,5.22
2023-03-06T07:55:41.843Z,5.32
2023-03-06T07:58:11.865Z,5.39
2023-03-06T08:00:41.000Z,5.48
2023-03-06T08:03:12.710Z,5.66
2023-03-06T08:05:41.704Z,5.94
2023-03-06T08:08:10.760Z,6.11
2023-03-06T08:10:39.594Z,5.99
2023-03-06T08:13:08.394Z,5.89
2023-03-06T08:15:37.248Z,5.86
2023-03-06T08:18:06.087Z,5.70
2023-03-06T08:20:35.044Z,5.79
2023-03-06T08:23:04.020Z,6.06
2023-03-06T08:25:33.029Z,6.22
2023-03-06T08:28:02.131Z,6.26
2023-03-06T08:30:31.174Z,6.29
2023-03-06T08:33:01.615Z,6.50
2023-03-06T08:35:30.708Z,6.47
2023-03-06T08:37:59.723Z,6.58
2023-03-06T08:40:30.606Z,6.61
2023-03-06T08:42:59.522Z,6.72
2023-03-06T08:45:29.419Z,6.63
2023-03-06T08:47:59.023Z,6.54
2023-03-06T08:50:27.995Z,6.74
2023-03-06T08:52:56.936Z,7.01
2023-03-06T08:55:26.167Z,7.04
2023-03-06T08:57:55.059Z,7.07
2023-03-06T09:00:24.180Z,7.14
2023-03-06T09:02:53.188Z,7.10
2023-03-06T09:05:22.518Z,7.18
2023-03-06T09:07:51.803Z,7.37
2023-03-06T09:10:24.420Z,7.63
2023-03-06T09:12:55.358Z,7.63
2023-03-06T09:15:25.102Z,7.38
2023-03-06T09:17:54.636Z,7.32
2023-03-06T09:20:23.614Z,7.21
2023-03-06T09:22:52.633Z,7.43
2023-03-06T09:25:23.594Z,7.52
2023-03-06T09:28:08.612Z,7.43
2023-03-06T09:30:41.623Z,7.46
2023-03-06T09:33:10.704Z,7.64
2023-03-06T09:35:49.456Z,7.83
2023-03-06T09:38:21.110Z,7.77
2023-03-06T09:41:02.341Z,7.88
2023-03-06T09:43:48.481Z,8.22
2023-03-06T09:46:38.141Z,8.25
2023-03-06T09:49:35.566Z,8.34
2023-03-06T09:52:36.764Z,8.31
2023-03-06T09:55:33.464Z,8.35
2023-03-06T09:58:20.955Z,8.53
2023-03-06T10:01:36.879Z,8.66
2023-03-06T10:04:41.914Z,8.58
2023-03-06T10:07:33.692Z,8.73
2023-03-06T10:10:07.708Z,8.65
2023-03-06T10:12:45.092Z,8.67
2023-03-06T10:15:32.626Z,8.65
2023-03-06T10:18:05.862Z,8.61
2023-03-06T10:20:45.242Z,8.75
2023-03-06T10:23:53.780Z,8.91
2023-03-06T10:26:32.943Z,8.95
2023-03-06T10:29:14.197Z,9.09
2023-03-06T10:31:54.342Z,9.16
2023-03-06T10:34:31.072Z,9.22
2023-03-06T10:37:09.347Z,9.64
2023-03-06T10:39:40.056Z,10.40
2023-03-06T10:42:09.697Z,10.34
2023-03-06T10:44:39.137Z,10.06
2023-03-06T10:47:31.712Z,10.02
2023-03-06T10:50:03.895Z,10.32
2023-03-06T10:52:35.590Z,10.78
2023-03-06T10:55:27.919Z,10.71
2023-03-06T10:57:57.539Z,10.44
2023-03-06T11:00:33.886Z,10.21
2023-03-06T11:03:27.508Z,10.41
2023-03-06T11:06:01.155Z,10.51
2023-03-06T11:08:30.296Z,10.31
2023-03-06T11:11:09.577Z,9.77
2023-03-06T11:13:41.217Z,9.34
2023-03-06T11:16:26.966Z,9.12
2023-03-06T11:19:00.837Z,8.89
2023-03-06T11:21:36.024Z,8.76
2023-03-06T11:24:15.999Z,8.66
2023-03-06T11:27:13.727Z,8.66
2023-03-06T11:29:49.813Z,8.65
2023-03-06T11:32:36.781Z,8.64
2023-03-06T11:35:25.372Z,8.50
2023-03-06T11:38:07.252Z,8.43
2023-03-06T11:41:02.262Z,8.32
2023-03-06T11:44:13.344Z,8.15
2023-03-06T11:46:50.383Z,8.27
2023-03-06T11:49:28.511Z,8.25
2023-03-06T11:52:04.934Z,8.29
2023-03-06T11:54:33.941Z,8.15
2023-03-06T11:57:22.333Z,8.14
2023-03-06T12:00:20.273Z,8.24
2023-03-06T12:03:16.746Z,8.28
2023-03-06T12:06:04.372Z,8.43
2023-03-06T12:08:54.463Z,8.41
2023-03-06T12:12:09.472Z,8.43
2023-03-06T12:15:11.032Z,8.69
2023-03-06T12:18:14.300Z,8.63
2023-03-06T12:21:19.432Z,8.76
2023-03-06T12:24:20.536Z,8.97
2023-03-06T12:27:14.408Z,9.18
2023-03-06T12:30:16.514Z,9.31
2023-03-06T12:33:09.474Z,9.29
2023-03-06T12:35:55.433Z,9.39
2023-03-06T12:38:48.713Z,9.51
2023-03-06T12:41:50.678Z,9.59
2023-03-06T12:44:54.405Z,9.43
2023-03-06T12:47:28.141Z,9.67
2023-03-06T12:50:04.375Z,9.71
2023-03-06T12:52:35.426Z,9.71
2023-03-06T12:55:08.504Z,9.62
2023-03-06T12:57:37.326Z,9.48
2023-03-06T13:00:07.031Z,9.34
2023-03-06T13:03:14.608Z,9.32
2023-03-06T13:06:00.871Z,9.48
2023-03-06T13:09:00.345Z,9.72
2023-03-06T13:12:10.933Z,9.76
2023-03-06T13:14:48.769Z,10.39
2023-03-06T13:17:37.830Z,10.58
2023-03-06T13:20:15.733Z,11.12
2023-03-06T13:22:47.530Z,11.58
2023-03-06T13:25:21.054Z,11.36
2023-03-06T13:27:52.636Z,11.28
2023-03-06T13:30:39.532Z,11.06
2023-03-06T13:33:33.118Z,10.49
2023-03-06T13:36:22.410Z,10.27
2023-03-06T13:39:00.139Z,10.17
2023-03-06T13:41:31.684Z,9.98
2023-03-06T13:44:28.601Z,10.41
2023-03-06T13:47:02.204Z,11.02
2023-03-06T13:49:32.301Z,11.56
2023-03-06T13:52:19.635Z,11.41
2023-03-06T13:55:17.333Z,11.51
2023-03-06T13:58:40.636Z,11.32
2023-03-06T14:01:51.955Z,11.40
2023-03-06T14:04:58.717Z,11.52
2023-03-06T14:07:40.274Z,11.58
2023-03-06T14:10:23.624Z,11.91
2023-03-06T14:13:02.497Z,12.56
2023-03-06T14:15:49.819Z,12.88
2023-03-06T14:18:48.338Z,13.16
2023-03-06T14:21:42.659Z,13.11
2023-03-06T14:24:21.060Z,13.38
2023-03-06T14:26:55.006Z,13.78
2023-03-06T14:29:27.886Z,13.40
2023-03-06T14:32:00.249Z,13.19
2023-03-06T14:34:41.348Z,12.20
2023-03-06T14:37:25.522Z,11.29
2023-03-06T14:39:56.323Z,11.00
2023-03-06T14:42:28.986Z,10.78
2023-03-06T14:45:24.017Z,10.64
2023-03-06T14:47:53.802Z,11.10
2023-03-06T14:50:24.328Z,11.44
2023-03-06T14:52:59.624Z,12.39
2023-03-06T14:55:34.087Z,13.12
2023-03-06T14:58:16.761Z,13.89
2023-03-06T15:00:50.406Z,14.11
2023-03-06T15:03:32.803Z,14.76
2023-03-06T15:06:17.741Z,14.81
2023-03-06T15:08:54.794Z,14.81
2023-03-06T15:12:21.353Z,13.67
2023-03-06T15:15:11.934Z,12.58
2023-03-06T15:17:47.561Z,11.68
2023-03-06T15:21:11.175Z,10.89
2023-03-06T15:23:47.349Z,10.10
2023-03-06T15:26:34.881Z,10.05
2023-03-06T15:29:10.908Z,9.62
2023-03-06T15:31:43.856Z,9.38
2023-03-06T15:34:12.774Z,9.19
2023-03-06T15:36:49.627Z,9.07
2023-03-06T15:39:40.063Z,9.16
2023-03-06T15:42:34.621Z,9.30
2023-03-06T15:45:17.826Z,9.09
2023-03-06T15:47:54.411Z,8.82
2023-03-06T15:50:29.177Z,8.65
2023-03-06T15:52:58.841Z,8.42
2023-03-06T15:55:28.275Z,8.17
2023-03-06T15:58:02.352Z,7.98
2023-03-06T16:00:35.347Z,7.80
2023-03-06T16:03:05.085Z,7.49
2023-03-06T16:05:34.245Z,7.10
2023-03-06T16:08:07.013Z,6.94
2023-03-06T16:10:39.609Z,6.77
2023-03-06T16:13:17.146Z,6.58
2023-03-06T16:15:50.296Z,6.42
2023-03-06T16:18:19.805Z,6.17
2023-03-06T16:20:49.995Z,5.97
2023-03-06T16:23:19.019Z,5.76
2023-03-06T16:25:49.659Z,5.44
2023-03-06T16:28:18.617Z,5.15
2023-03-06T16:30:49.302Z,4.99
2023-03-06T16:33:37.041Z,4.70
2023-03-06T16:36:42.581Z,4.42
2023-03-06T16:39:16.075Z,4.17
2023-03-06T16:41:47.502Z,4.05
2023-03-06T16:47:03.637Z,3.65
2023-03-06T16:49:34.901Z,3.53
2023-03-06T16:52:04.879Z,3.41
2023-03-06T16:54:36.063Z,3.27
2023-03-06T16:57:05.243Z,3.13
2023-03-06T16:59:34.426Z,2.94
2023-03-06T17:02:03.470Z,2.82
2023-03-06T17:04:32.397Z,2.70
2023-03-06T17:07:01.578Z,2.60
2023-03-06T17:09:31.933Z,2.52
2023-03-06T17:12:02.959Z,2.42
2023-03-06T17:14:34.284Z,2.36
2023-03-06T17:17:03.158Z,2.29
2023-03-06T17:19:32.568Z,2.20
2023-03-06T17:22:01.653Z,2.13
2023-03-06T17:24:30.391Z,2.03
2023-03-06T17:26:59.680Z,1.97
2023-03-06T17:29:29.165Z,1.80
2023-03-06T17:31:58.367Z,1.64
2023-03-06T17:34:27.502Z,1.54
2023-03-06T17:36:56.885Z,1.47
2023-03-06T17:39:35.646Z,1.43
2023-03-06T17:42:07.552Z,1.36
2023-03-06T17:44:42.043Z,1.32
2023-03-06T17:47:12.022Z,1.31
2023-03-06T17:49:40.893Z,1.28
2023-03-06T17:52:11.526Z,1.28
2023-03-06T17:54:40.653Z,1.27
2023-03-06T17:57:09.454Z,1.27
2023-03-06T17:59:38.378Z,1.25
2023-03-06T18:02:07.346Z,1.24
2023-03-06T18:04:37.023Z,1.22
2023-03-06T18:07:06.024Z,1.21
2023-03-06T18:09:35.332Z,1.17
2023-03-06T18:12:06.157Z,1.12
2023-03-06T18:14:37.280Z,1.08
2023-03-06T18:17:10.401Z,1.00
2023-03-06T18:19:39.159Z,0.92
2023-03-06T18:22:08.083Z,0.84
2023-03-06T18:24:37.275Z,0.76
2023-03-06T18:27:06.124Z,0.61
2023-03-06T18:29:34.866Z,0.47
2023-03-06T18:32:03.854Z,0.44
2023-03-06T18:34:32.805Z,0.41
2023-03-06T18:37:01.524Z,0.40
2023-03-06T18:39:30.564Z,0.35
2023-03-06T18:41:59.463Z,0.30
2023-03-06T18:44:28.573Z,0.25
2023-03-06T18:46:57.346Z,0.23
2023-03-06T18:49:26.191Z,0.19
2023-03-06T18:51:55.065Z,0.17
2023-03-06T18:54:25.535Z,0.16
2023-03-06T18:56:54.360Z,0.16
2023-03-06T18:59:23.220Z,0.15
2023-03-06T19:01:59.124Z,0.15
2023-03-06T19:04:28.407Z,0.16
2023-03-06T19:06:57.391Z,0.17
2023-03-06T19:09:26.397Z,0.15
2023-03-06T19:11:57.612Z,0.15
2023-03-06T19:14:28.799Z,0.12
2023-03-06T19:16:57.732Z,0.09
2023-03-06T19:19:27.247Z,0.05
2023-03-06T19:22:00.618Z,0.02
2023-03-06T19:24:29.463Z,-0.02
2023-03-06T19:26:58.400Z,-0.02
2023-03-06T19:29:27.289Z,-0.03
2023-03-06T19:31:57.406Z,-0.00
2023-03-06T19:34:26.331Z,0.02
2023-03-06T19:36:55.212Z,0.03
2023-03-06T19:39:24.527Z,0.03
2023-03-06T19:41:53.474Z,0.01
2023-03-06T19:44:23.604Z,-0.01
2023-03-06T19:46:52.423Z,-0.02
2023-03-06T19:49:22.415Z,-0.04
2023-03-06T19:51:51.506Z,-0.06
2023-03-06T19:54:23.570Z,-0.08
2023-03-06T19:56:54.053Z,-0.09
2023-03-06T19:59:23.426Z,-0.05
2023-03-06T20:01:54.293Z,-0.02
2023-03-06T20:04:24.192Z,0.03
2023-03-06T20:06:54.392Z,0.05
2023-03-06T20:12:46.002Z,0.09
2023-03-06T20:15:20.860Z,0.06
2023-03-06T20:17:50.763Z,0.00
2023-03-06T20:20:22.620Z,-0.01
2023-03-06T20:22:51.402Z,-0.04
2023-03-06T20:25:21.138Z,-0.05
2023-03-06T20:27:50.063Z,-0.06
2023-03-06T20:30:19.070Z,-0.09
2023-03-06T20:32:48.205Z,-0.10
2023-03-06T20:35:18.106Z,-0.11
2023-03-06T20:37:47.038Z,-0.13
2023-03-06T20:40:16.283Z,-0.15
2023-03-06T20:42:45.329Z,-0.18
2023-03-06T20:45:16.046Z,-0.20
2023-03-06T20:47:47.490Z,-0.19
2023-03-06T20:50:17.101Z,-0.19
2023-03-06T20:52:46.102Z,-0.15
2023-03-06T20:55:15.036Z,-0.12
2023-03-06T20:57:43.831Z,-0.15
2023-03-06T21:00:13.821Z,-0.17
2023-03-06T21:02:42.922Z,-0.20
2023-03-06T21:05:12.088Z,-0.24
2023-03-06T21:07:41.106Z,-0.27
2023-03-06T21:10:10.496Z,-0.28
2023-03-06T21:12:39.338Z,-0.30
2023-03-06T21:15:08.915Z,-0.29
2023-03-06T21:17:37.889Z,-0.25
2023-03-06T21:20:08.013Z,-0.22
2023-03-06T21:22:36.946Z,-0.18
2023-03-06T21:25:06.101Z,-0.17
2023-03-06T21:27:34.924Z,-0.15
2023-03-06T21:30:04.190Z,-0.14
2023-03-06T21:32:33.324Z,-0.12
2023-03-06T21:35:02.461Z,-0.13
2023-03-06T21:37:31.349Z,-0.11
2023-03-06T21:40:01.916Z,-0.09
2023-03-06T21:42:30.707Z,-0.06
2023-03-06T21:45:00.134Z,0.13
2023-03-06T21:47:28.959Z,0.22
2023-03-06T21:50:01.559Z,0.24
2023-03-06T21:52:30.745Z,0.19
2023-03-06T21:54:59.596Z,0.25
2023-03-06T21:57:28.464Z,0.25
2023-03-06T21:59:57.240Z,0.25
2023-03-06T22:02:26.078Z,0.24
2023-03-06T22:04:55.499Z,0.29
2023-03-06T22:07:24.647Z,0.44
2023-03-06T22:09:54.448Z,0.52
2023-03-06T22:12:23.639Z,0.57
2023-03-06T22:14:52.682Z,0.58
2023-03-06T22:17:21.506Z,0.61
2023-03-06T22:19:50.219Z,0.64
2023-03-06T22:22:19.594Z,0.66
2023-03-06T22:24:48.702Z,0.64
2023-03-06T22:27:17.597Z,0.63
2023-03-06T22:29:46.741Z,0.62
2023-03-06T22:32:15.764Z,0.64
2023-03-06T22:34:44.755Z,0.63
2023-03-06T22:37:13.659Z,0.59
2023-03-06T22:39:42.517Z,0.57
2023-03-06T22:42:11.468Z,0.59
2023-03-06T22:44:40.347Z,0.59
2023-03-06T22:47:09.161Z,0.59
2023-03-06T22:49:38.741Z,0.58
2023-03-06T22:52:07.758Z,0.54
2023-03-06T22:54:36.664Z,0.53
2023-03-06T22:57:05.511Z,0.56
2023-03-06T22:59:34.385Z,0.61
2023-03-06T23:02:03.931Z,0.65
2023-03-06T23:04:32.696Z,0.70
2023-03-06T23:07:01.506Z,0.75
2023-03-06T23:09:31.830Z,0.84
2023-03-06T23:12:19.684Z,0.90
2023-03-06T23:15:08.389Z,0.97
2023-03-06T23:17:55.870Z,1.06
2023-03-06T23:20:44.125Z,1.14
2023-03-06T23:23:31.337Z,1.19
2023-03-06T23:26:00.754Z,1.22
2023-03-06T23:28:29.745Z,1.25
2023-03-06T23:30:58.757Z,1.28
2023-03-06T23:33:27.557Z,1.29
2023-03-06T23:35:56.395Z,1.30
2023-03-06T23:38:25.309Z,1.34
2023-03-06T23:40:54.231Z,1.34
2023-03-06T23:43:23.036Z,1.33
2023-03-06T23:45:56.278Z,1.31
2023-03-06T23:48:27.040Z,1.29
2023-03-06T23:50:56.965Z,1.26
2023-03-06T23:53:26.091Z,1.23
2023-03-06T23:55:54.928Z,1.19
2023-03-06T23:58:23.768Z,1.15
